Time;durP1;ratioP1;P1;durP2;ratioP2;P2;SDS_P1;SDS_P2;PMS_P1;PMS_P2;Temp;Humidity;BMP_temperature;BMP_pressure;BME280_temperature;BME280_humidity;BME280_pressure;Samples;Min_cycle;Max_cycle;Signal;HPM_P1;HPM_P2
2023/04/13 00:00:54;;;;;;;41.80;17.13;;;5.50;99.90;;;;;;5107774;28;20035;-45
2023/04/13 00:03:20;;;;;;;49.00;17.83;;;5.40;99.90;;;;;;5108136;28;20028;-45
2023/04/13 00:05:45;;;;;;;71.07;21.23;;;5.40;99.90;;;;;;5108457;28;20032;-47
2023/04/13 00:08:11;;;;;;;55.33;19.50;;;5.30;99.90;;;;;;5107573;28;20034;-45
2023/04/13 00:10:39;;;;;;;59.92;19.42;;;5.30;99.90;;;;;;5107789;28;20087;-45
2023/04/13 00:13:07;;;;;;;61.55;19.95;;;5.30;99.90;;;;;;5108324;28;20020;-46
2023/04/13 00:15:35;;;;;;;56.53;18.60;;;5.30;99.90;;;;;;5107985;28;20136;-46
2023/04/13 00:18:02;;;;;;;49.55;19.05;;;5.30;99.90;;;;;;5107937;28;20397;-46
2023/04/13 00:20:28;;;;;;;64.47;20.55;;;5.20;99.90;;;;;;5107233;28;20019;-46
2023/04/13 00:22:53;;;;;;;62.60;20.92;;;5.10;99.90;;;;;;5107320;28;20042;-46
2023/04/13 00:25:19;;;;;;;62.53;23.00;;;5.10;99.90;;;;;;5107758;28;20053;-46
2023/04/13 00:27:44;;;;;;;62.08;22.60;;;5.10;99.90;;;;;;5110926;27;20047;-46
2023/04/13 00:30:12;;;;;;;68.80;22.17;;;5.10;99.90;;;;;;5089328;28;20020;-47
2023/04/13 00:32:41;;;;;;;65.45;23.88;;;5.00;99.90;;;;;;5107771;28;20022;-48
2023/04/13 00:35:08;;;;;;;56.28;22.15;;;5.00;99.90;;;;;;5107773;28;20020;-49
2023/04/13 00:37:33;;;;;;;73.30;22.98;;;5.00;99.90;;;;;;5106959;28;20449;-46
2023/04/13 00:39:59;;;;;;;70.13;23.95;;;5.00;99.90;;;;;;5107264;28;20054;-46
2023/04/13 00:42:25;;;;;;;58.30;21.25;;;5.00;99.90;;;;;;5107618;28;20119;-45
2023/04/13 00:44:52;;;;;;;55.92;18.83;;;5.00;99.90;;;;;;5088480;28;20320;-48
2023/04/13 00:47:25;;;;;;;66.28;22.00;;;5.00;99.90;;;;;;5107272;28;20421;-45
2023/04/13 00:49:52;;;;;;;55.13;19.15;;;4.90;99.90;;;;;;5107208;28;20019;-45
2023/04/13 00:52:18;;;;;;;58.97;20.88;;;4.90;99.90;;;;;;5107076;28;20081;-45
2023/04/13 00:54:43;;;;;;;62.97;20.10;;;4.90;99.90;;;;;;5107287;28;20024;-45
2023/04/13 00:57:10;;;;;;;67.28;19.90;;;4.90;99.90;;;;;;5106784;28;20433;-44
2023/04/13 00:59:36;;;;;;;58.88;21.27;;;4.90;99.90;;;;;;5104608;28;20023;-45
2023/04/13 01:02:04;;;;;;;54.05;17.50;;;4.90;99.90;;;;;;5107576;28;20020;-44
2023/04/13 01:04:30;;;;;;;59.55;20.70;;;4.90;99.90;;;;;;5107511;28;20020;-45
2023/04/13 01:07:03;;;;;;;58.08;18.85;;;4.90;99.90;;;;;;5088945;28;20015;-46
2023/04/13 01:10:05;;;;;;;56.53;18.10;;;4.90;99.90;;;;;;5107432;28;20061;-44
2023/04/13 01:12:55;;;;;;;59.60;18.50;;;4.90;99.90;;;;;;5100899;28;20524;-45
2023/04/13 01:15:22;;;;;;;64.28;19.30;;;4.90;99.90;;;;;;5107260;28;20070;-46
2023/04/13 01:17:53;;;;;;;51.22;17.55;;;4.80;99.90;;;;;;5088931;28;20032;-45
2023/04/13 01:20:19;;;;;;;52.10;15.95;;;4.80;99.90;;;;;;5104790;28;20019;-45
2023/04/13 01:23:00;;;;;;;45.63;16.13;;;4.90;99.90;;;;;;5088490;28;20070;-47
2023/04/13 01:25:49;;;;;;;50.53;17.50;;;4.90;99.90;;;;;;5105778;28;20502;-49
2023/04/13 01:28:16;;;;;;;50.25;17.98;;;5.00;99.90;;;;;;5112986;28;20032;-46
2023/04/13 01:30:44;;;;;;;51.25;16.15;;;5.00;99.90;;;;;;5108912;28;20077;-45
2023/04/13 01:33:10;;;;;;;56.10;17.90;;;5.00;99.90;;;;;;5109583;28;20015;-47
2023/04/13 01:35:37;;;;;;;45.95;17.10;;;4.90;99.90;;;;;;5109759;28;20058;-47
2023/04/13 01:38:05;;;;;;;69.25;18.35;;;4.90;99.90;;;;;;5106546;28;20051;-45
2023/04/13 01:40:33;;;;;;;49.83;17.35;;;4.90;99.90;;;;;;5106976;28;20023;-47
2023/04/13 01:42:59;;;;;;;46.75;17.77;;;4.90;99.90;;;;;;5106984;28;20019;-48
2023/04/13 01:45:31;;;;;;;56.92;18.60;;;4.90;99.90;;;;;;5106948;28;20424;-48
2023/04/13 01:48:03;;;;;;;52.55;18.60;;;5.00;99.90;;;;;;5083236;28;20035;-45
2023/04/13 01:50:33;;;;;;;63.40;19.38;;;4.90;99.90;;;;;;5106678;28;20012;-45
2023/04/13 01:53:10;;;;;;;53.25;18.58;;;5.00;99.90;;;;;;5104085;28;20020;-46
2023/04/13 01:55:40;;;;;;;68.97;21.02;;;5.00;99.90;;;;;;5089357;28;20023;-48
2023/04/13 01:58:09;;;;;;;54.67;18.95;;;4.90;99.90;;;;;;5110578;28;20062;-45
2023/04/13 02:00:36;;;;;;;61.60;19.38;;;5.00;99.90;;;;;;5091789;28;20457;-44
2023/04/13 02:03:06;;;;;;;53.85;17.95;;;5.10;99.90;;;;;;5095626;28;20427;-45
2023/04/13 02:05:35;;;;;;;51.40;17.58;;;5.10;99.90;;;;;;5097269;28;20101;-45
2023/04/13 02:08:04;;;;;;;44.13;17.85;;;5.10;99.90;;;;;;5109842;28;20042;-45
2023/04/13 02:10:30;;;;;;;45.97;18.50;;;5.10;99.90;;;;;;5110135;28;20476;-45
2023/04/13 02:12:56;;;;;;;42.17;16.67;;;5.10;99.90;;;;;;5110274;28;20060;-45
2023/04/13 02:15:22;;;;;;;38.60;15.75;;;5.10;99.90;;;;;;5110211;28;20036;-45
2023/04/13 02:17:47;;;;;;;38.53;16.77;;;5.10;99.90;;;;;;5109903;28;20057;-45
2023/04/13 02:20:13;;;;;;;46.95;17.80;;;5.10;99.90;;;;;;5109798;28;20028;-45
2023/04/13 02:22:40;;;;;;;46.45;17.55;;;5.10;99.90;;;;;;5109853;28;20024;-48
2023/04/13 02:25:07;;;;;;;46.08;16.33;;;5.10;99.90;;;;;;5106425;27;20083;-48
2023/04/13 02:27:34;;;;;;;34.40;14.20;;;5.10;99.90;;;;;;5117705;27;20090;-47
2023/04/13 02:30:00;;;;;;;41.70;15.07;;;5.20;99.90;;;;;;5108936;28;20677;-45
2023/04/13 02:32:26;;;;;;;32.40;15.65;;;5.10;99.90;;;;;;5111655;27;20102;-45
2023/04/13 02:34:52;;;;;;;28.70;14.68;;;5.20;99.90;;;;;;5115182;27;20024;-45
2023/04/13 02:37:19;;;;;;;31.75;14.52;;;5.20;99.90;;;;;;5108824;28;20533;-45
2023/04/13 02:39:45;;;;;;;27.50;12.35;;;5.30;99.90;;;;;;5093310;27;20057;-45
2023/04/13 02:42:10;;;;;;;28.00;12.38;;;5.30;99.90;;;;;;5114833;27;20039;-45
2023/04/13 02:44:37;;;;;;;32.65;11.93;;;5.30;99.90;;;;;;5109177;28;20023;-47
2023/04/13 02:47:03;;;;;;;22.95;10.70;;;5.40;99.90;;;;;;5108761;28;20023;-46
2023/04/13 02:49:28;;;;;;;18.45;10.55;;;5.40;99.90;;;;;;5109019;28;20477;-46
2023/04/13 02:51:54;;;;;;;25.40;11.10;;;5.40;99.90;;;;;;5108530;28;20020;-45
2023/04/13 02:54:20;;;;;;;20.63;9.23;;;5.40;99.90;;;;;;5109125;28;20488;-45
2023/04/13 02:56:46;;;;;;;18.83;9.88;;;5.40;99.90;;;;;;5108829;28;20034;-45
2023/04/13 02:59:12;;;;;;;18.08;9.35;;;5.40;99.90;;;;;;5108610;28;20051;-45
2023/04/13 03:01:38;;;;;;;16.15;8.05;;;5.40;99.90;;;;;;5087034;28;20160;-46
2023/04/13 03:04:04;;;;;;;18.33;8.80;;;5.50;99.90;;;;;;5111954;27;20051;-44
2023/04/13 03:06:30;;;;;;;14.05;7.95;;;5.50;99.90;;;;;;5093300;28;20054;-47
2023/04/13 03:08:56;;;;;;;16.27;8.15;;;5.50;99.90;;;;;;5107033;28;20447;-45
2023/04/13 03:11:22;;;;;;;13.10;7.63;;;5.60;99.90;;;;;;5108317;28;20084;-44
2023/04/13 03:13:48;;;;;;;17.00;7.30;;;5.60;99.90;;;;;;5107935;28;20110;-44
2023/04/13 03:16:14;;;;;;;15.63;7.90;;;5.70;99.90;;;;;;5107866;28;20102;-44
2023/04/13 03:18:39;;;;;;;13.07;7.57;;;5.70;99.90;;;;;;5108040;28;20039;-45
2023/04/13 03:21:06;;;;;;;15.57;7.07;;;5.70;99.90;;;;;;5108327;28;20020;-44
2023/04/13 03:23:31;;;;;;;10.55;5.60;;;5.80;99.90;;;;;;5107200;28;20446;-45
2023/04/13 03:25:57;;;;;;;12.70;6.32;;;5.80;99.90;;;;;;5088764;28;20087;-44
2023/04/13 03:28:23;;;;;;;8.52;5.65;;;5.90;99.90;;;;;;5107834;28;20114;-44
2023/04/13 03:30:48;;;;;;;15.13;5.10;;;5.90;99.90;;;;;;5107179;28;20054;-44
2023/04/13 03:33:14;;;;;;;10.13;5.47;;;5.90;99.90;;;;;;5109274;27;20034;-44
2023/04/13 03:35:40;;;;;;;10.32;5.97;;;5.90;99.90;;;;;;5112040;27;20026;-44
2023/04/13 03:38:05;;;;;;;9.38;4.43;;;5.80;99.90;;;;;;5106740;28;20050;-44
2023/04/13 03:40:31;;;;;;;14.55;5.30;;;5.80;99.90;;;;;;5107225;28;20409;-45
2023/04/13 03:42:57;;;;;;;8.73;4.65;;;5.80;99.90;;;;;;5107218;28;20460;-45
2023/04/13 03:45:22;;;;;;;6.25;4.32;;;5.80;99.90;;;;;;5106882;28;20080;-45
2023/04/13 03:47:48;;;;;;;7.45;4.68;;;5.80;99.90;;;;;;5109958;27;20495;-45
2023/04/13 03:50:14;;;;;;;7.75;4.63;;;5.80;99.90;;;;;;5108115;27;20036;-45
2023/04/13 03:52:40;;;;;;;8.65;4.65;;;5.80;99.90;;;;;;5108790;27;20069;-45
2023/04/13 03:55:05;;;;;;;12.27;3.92;;;5.70;99.90;;;;;;5110608;27;20027;-46
2023/04/13 03:57:32;;;;;;;7.85;4.57;;;5.70;99.90;;;;;;5108053;27;20085;-44
2023/04/13 03:59:58;;;;;;;8.85;3.90;;;5.70;99.90;;;;;;5106961;27;20115;-46
2023/04/13 04:02:23;;;;;;;6.50;4.40;;;5.70;99.90;;;;;;5109041;27;20098;-45
2023/04/13 04:04:49;;;;;;;6.20;4.20;;;5.70;99.90;;;;;;5111304;27;20510;-45
2023/04/13 04:07:15;;;;;;;6.43;3.65;;;5.70;99.90;;;;;;5107669;27;20057;-45
2023/04/13 04:09:41;;;;;;;4.85;3.60;;;5.60;99.90;;;;;;5107786;27;20023;-45
2023/04/13 04:12:06;;;;;;;12.32;4.25;;;5.60;99.90;;;;;;5107925;27;20615;-45
2023/04/13 04:14:33;;;;;;;9.75;4.13;;;5.60;99.90;;;;;;5089428;28;20020;-45
2023/04/13 04:16:58;;;;;;;10.95;3.80;;;5.60;99.90;;;;;;5108306;27;20053;-45
2023/04/13 04:19:24;;;;;;;7.47;3.33;;;5.60;99.90;;;;;;5106124;28;20032;-45
2023/04/13 04:21:51;;;;;;;6.57;3.40;;;5.50;99.90;;;;;;5107118;27;20566;-44
2023/04/13 04:24:21;;;;;;;7.05;3.15;;;5.50;99.90;;;;;;5107305;28;20035;-46
2023/04/13 04:26:49;;;;;;;4.55;2.80;;;5.50;99.90;;;;;;5106634;28;20023;-45
2023/04/13 04:29:20;;;;;;;5.30;2.97;;;5.50;99.90;;;;;;5106484;28;20172;-44
2023/04/13 04:31:51;;;;;;;8.07;3.45;;;5.50;99.90;;;;;;5106923;28;20073;-45
2023/04/13 04:34:18;;;;;;;7.15;3.65;;;5.50;99.90;;;;;;5109824;27;20024;-45
2023/04/13 04:36:49;;;;;;;11.02;3.28;;;5.50;99.90;;;;;;5107347;27;20031;-44
2023/04/13 04:39:25;;;;;;;6.30;2.58;;;5.60;99.90;;;;;;5106401;28;20024;-45
2023/04/13 04:41:53;;;;;;;8.43;4.03;;;5.50;99.90;;;;;;5106883;28;20115;-45
2023/04/13 04:44:23;;;;;;;8.13;3.00;;;5.50;99.90;;;;;;5107669;27;20469;-45
2023/04/13 04:46:51;;;;;;;;;;;5.50;99.90;;;;;;5107071;28;20153;-45
2023/04/13 04:49:17;;;;;;;3.42;2.70;;;5.60;99.90;;;;;;5106481;28;19918;-44
2023/04/13 04:51:43;;;;;;;5.35;2.10;;;5.80;99.90;;;;;;5106869;28;20020;-44
2023/04/13 04:54:08;;;;;;;7.03;2.83;;;5.80;99.90;;;;;;5106515;28;20381;-44
2023/04/13 04:56:34;;;;;;;5.35;2.30;;;5.80;99.90;;;;;;5106681;28;20504;-45
2023/04/13 04:58:59;;;;;;;6.13;1.90;;;5.90;99.90;;;;;;5105941;28;20031;-45
2023/04/13 05:01:25;;;;;;;6.82;2.30;;;5.90;99.90;;;;;;5106632;28;20038;-43
2023/04/13 05:03:52;;;;;;;4.65;2.67;;;6.00;99.90;;;;;;5106689;28;20028;-44
2023/04/13 05:06:18;;;;;;;5.43;1.58;;;6.00;99.90;;;;;;5087843;28;20111;-45
2023/04/13 05:08:44;;;;;;;4.80;2.10;;;6.10;99.90;;;;;;5105761;28;20046;-44
2023/04/13 05:11:10;;;;;;;6.50;2.00;;;6.10;99.90;;;;;;5106760;28;20015;-45
2023/04/13 05:13:35;;;;;;;2.38;1.40;;;6.10;99.90;;;;;;5108395;28;20012;-44
2023/04/13 05:16:01;;;;;;;5.28;1.63;;;6.10;99.90;;;;;;5088408;28;20056;-45
2023/04/13 05:18:29;;;;;;;3.17;1.45;;;6.20;99.90;;;;;;5108161;28;20027;-46
2023/04/13 05:20:55;;;;;;;7.93;1.95;;;6.30;99.90;;;;;;5106563;28;20023;-44
2023/04/13 05:23:21;;;;;;;2.95;1.48;;;6.40;99.90;;;;;;5106341;28;20104;-45
2023/04/13 05:25:46;;;;;;;1.65;1.27;;;6.40;99.90;;;;;;5106937;28;20034;-45
2023/04/13 05:28:12;;;;;;;3.60;1.02;;;6.40;99.90;;;;;;5106759;28;20028;-45
2023/04/13 05:30:37;;;;;;;4.45;1.42;;;6.60;99.90;;;;;;5107865;28;20020;-45
2023/04/13 05:33:05;;;;;;;4.82;1.60;;;6.70;99.90;;;;;;5110819;28;20427;-45
2023/04/13 05:35:30;;;;;;;2.75;1.35;;;6.80;99.90;;;;;;5110492;28;20039;-46
2023/04/13 05:37:58;;;;;;;4.35;1.27;;;6.90;99.90;;;;;;5108948;28;20015;-45
2023/04/13 05:40:24;;;;;;;8.90;1.83;;;7.00;99.90;;;;;;5110116;28;20380;-45
2023/04/13 05:42:50;;;;;;;6.45;1.33;;;7.10;99.90;;;;;;5110599;28;20016;-46
2023/04/13 05:45:16;;;;;;;4.85;1.35;;;7.20;99.90;;;;;;5091921;28;20481;-44
2023/04/13 05:47:43;;;;;;;5.93;1.90;;;7.30;99.90;;;;;;5110172;28;20469;-44
2023/04/13 05:50:09;;;;;;;7.47;1.52;;;7.30;99.90;;;;;;5112106;27;20635;-44
2023/04/13 05:52:35;;;;;;;6.75;1.35;;;7.30;99.90;;;;;;5110148;27;20031;-45
2023/04/13 05:55:01;;;;;;;4.68;1.30;;;7.30;99.90;;;;;;5110580;28;20016;-44
2023/04/13 05:57:26;;;;;;;1.88;1.50;;;7.40;99.90;;;;;;5111005;27;20051;-44
2023/04/13 05:59:53;;;;;;;3.00;1.08;;;7.50;99.90;;;;;;5091091;28;20085;-45
2023/04/13 06:02:19;;;;;;;5.20;1.60;;;7.50;99.90;;;;;;5107308;27;20028;-46
2023/04/13 06:04:45;;;;;;;4.07;1.17;;;7.50;99.90;;;;;;5109906;27;20107;-46
2023/04/13 06:07:13;;;;;;;6.25;1.52;;;7.50;99.90;;;;;;5109291;28;20107;-45
2023/04/13 06:09:39;;;;;;;2.78;1.30;;;7.40;99.90;;;;;;5108638;28;20469;-45
2023/04/13 06:12:04;;;;;;;4.22;1.27;;;7.40;99.90;;;;;;5109053;28;20028;-44
2023/04/13 06:14:30;;;;;;;1.70;1.35;;;7.40;99.90;;;;;;5109576;28;20020;-44
2023/04/13 06:16:56;;;;;;;3.70;1.17;;;7.50;99.90;;;;;;5109079;28;20019;-44
2023/04/13 06:19:21;;;;;;;2.10;1.30;;;7.50;99.90;;;;;;5108512;28;20023;-44
2023/04/13 06:21:47;;;;;;;2.28;1.40;;;7.50;99.90;;;;;;5109911;27;20031;-45
2023/04/13 06:24:12;;;;;;;2.22;1.08;;;7.60;99.90;;;;;;5108722;28;20122;-44
2023/04/13 06:26:38;;;;;;;4.47;1.02;;;7.70;99.90;;;;;;5109067;28;20028;-45
2023/04/13 06:29:04;;;;;;;6.10;1.42;;;7.80;99.90;;;;;;5108721;28;20042;-45
2023/04/13 06:31:29;;;;;;;1.50;1.23;;;7.90;99.90;;;;;;5108349;28;20055;-44
2023/04/13 06:33:55;;;;;;;4.93;1.30;;;7.90;99.90;;;;;;5107456;28;20035;-44
2023/04/13 06:36:22;;;;;;;3.65;1.60;;;8.00;99.90;;;;;;5091264;28;20185;-44
2023/04/13 06:38:47;;;;;;;7.18;1.17;;;8.10;99.90;;;;;;5108812;28;20023;-45
2023/04/13 06:41:13;;;;;;;4.57;1.65;;;8.20;99.90;;;;;;5097499;28;20040;-45
2023/04/13 06:43:38;;;;;;;5.85;1.30;;;8.30;99.90;;;;;;5125780;27;20377;-44
2023/04/13 06:46:05;;;;;;;3.97;1.15;;;8.60;99.90;;;;;;5109274;28;20511;-45
2023/04/13 06:48:30;;;;;;;4.13;1.20;;;8.60;99.90;;;;;;5109450;28;20019;-45
2023/04/13 06:50:58;;;;;;;5.40;1.20;;;8.70;99.90;;;;;;5109562;28;20019;-45
2023/04/13 06:53:23;;;;;;;2.50;1.50;;;8.80;99.90;;;;;;5111210;27;20145;-46
2023/04/13 06:55:49;;;;;;;5.65;1.15;;;8.80;99.90;;;;;;5115911;27;20111;-44
2023/04/13 06:58:14;;;;;;;7.70;1.42;;;8.90;99.90;;;;;;5108707;28;20438;-44
2023/04/13 07:00:40;;;;;;;2.67;1.40;;;8.90;99.90;;;;;;5089967;28;20020;-44
2023/04/13 07:03:05;;;;;;;3.53;1.17;;;8.90;99.90;;;;;;5108948;28;20023;-45
2023/04/13 07:05:31;;;;;;;3.53;1.00;;;8.90;99.90;;;;;;5109005;28;20039;-44
2023/04/13 07:07:57;;;;;;;2.33;1.23;;;8.90;99.90;;;;;;5108346;28;20028;-49
2023/04/13 07:10:23;;;;;;;2.78;1.30;;;8.90;99.90;;;;;;5110377;27;20023;-44
2023/04/13 07:12:48;;;;;;;3.67;1.20;;;9.00;99.90;;;;;;5108809;27;20522;-44
2023/04/13 07:15:14;;;;;;;3.10;1.20;;;9.00;99.90;;;;;;5107341;28;20030;-45
2023/04/13 07:17:40;;;;;;;1.73;0.85;;;9.00;99.90;;;;;;5108345;28;20102;-44
2023/04/13 07:20:06;;;;;;;2.95;1.10;;;9.10;99.90;;;;;;5108408;28;20104;-45
2023/04/13 07:22:32;;;;;;;3.45;1.30;;;9.10;99.90;;;;;;5090118;28;20016;-44
2023/04/13 07:24:58;;;;;;;3.75;1.20;;;9.10;99.90;;;;;;5108932;28;20023;-45
2023/04/13 07:27:24;;;;;;;3.20;1.10;;;9.20;99.90;;;;;;5091211;28;20034;-45
2023/04/13 07:29:54;;;;;;;1.80;1.00;;;9.10;99.90;;;;;;5109698;28;20022;-44
2023/04/13 07:32:19;;;;;;;3.58;1.15;;;9.30;99.90;;;;;;5109799;28;20024;-44
2023/04/13 07:34:45;;;;;;;3.33;1.42;;;9.60;99.90;;;;;;5091524;28;20443;-45
2023/04/13 07:37:11;;;;;;;1.05;0.80;;;9.70;99.90;;;;;;5109718;28;20501;-44
2023/04/13 07:39:36;;;;;;;2.80;1.15;;;10.10;99.90;;;;;;5109513;28;20051;-45
2023/04/13 07:42:02;;;;;;;1.65;0.98;;;10.60;99.90;;;;;;5127251;27;20090;-44
2023/04/13 07:44:27;;;;;;;3.83;1.08;;;11.20;99.90;;;;;;5119381;27;20030;-45
2023/04/13 07:46:55;;;;;;;2.88;0.90;;;11.40;99.90;;;;;;5109215;28;20027;-44
2023/04/13 07:49:21;;;;;;;4.55;1.10;;;11.70;99.90;;;;;;5108775;28;20031;-45
2023/04/13 07:51:47;;;;;;;3.42;1.17;;;12.50;99.90;;;;;;5104418;28;20093;-45
2023/04/13 07:54:12;;;;;;;4.13;1.00;;;12.90;99.60;;;;;;5105786;28;20138;-44
2023/04/13 07:56:38;;;;;;;1.92;1.00;;;12.70;99.10;;;;;;5089432;28;20019;-45
2023/04/13 07:59:03;;;;;;;3.03;1.02;;;12.60;98.20;;;;;;5107787;28;20555;-45
2023/04/13 08:01:30;;;;;;;2.33;0.90;;;12.60;99.20;;;;;;5089769;28;20027;-45
2023/04/13 08:03:56;;;;;;;3.45;1.10;;;13.40;96.90;;;;;;5108046;28;20115;-45
2023/04/13 08:06:22;;;;;;;2.03;0.85;;;13.10;97.40;;;;;;5107762;28;20106;-43
2023/04/13 08:08:47;;;;;;;2.97;1.25;;;14.50;95.80;;;;;;5107514;28;20092;-46
2023/04/13 08:11:13;;;;;;;2.60;0.85;;;15.20;93.20;;;;;;5112507;27;20620;-45
2023/04/13 08:13:39;;;;;;;3.88;1.60;;;15.30;90.70;;;;;;5107966;27;20038;-45
2023/04/13 08:16:05;;;;;;;3.17;1.58;;;16.50;90.80;;;;;;5106794;28;20024;-45
2023/04/13 08:18:31;;;;;;;2.28;1.08;;;17.40;84.70;;;;;;5107340;28;20039;-45
2023/04/13 08:20:59;;;;;;;3.30;1.17;;;19.00;77.10;;;;;;5108518;28;20127;-49
2023/04/13 08:23:26;;;;;;;4.53;1.10;;;18.70;75.10;;;;;;5108467;28;20043;-45
2023/04/13 08:25:51;;;;;;;5.55;1.38;;;19.80;72.90;;;;;;5108617;28;20716;-45
2023/04/13 08:28:17;;;;;;;53.47;42.35;;;19.60;69.20;;;;;;5116114;27;20050;-46
2023/04/13 08:30:44;;;;;;;3.72;2.33;;;20.10;69.90;;;;;;5088655;28;20020;-45
2023/04/13 08:33:10;;;;;;;2.90;1.17;;;19.60;67.10;;;;;;5107003;28;20039;-45
2023/04/13 08:35:38;;;;;;;3.30;1.42;;;17.70;70.00;;;;;;5107203;28;20019;-45
2023/04/13 08:38:04;;;;;;;4.43;1.40;;;17.40;71.00;;;;;;5107201;28;20045;-45
2023/04/13 08:40:34;;;;;;;3.08;1.40;;;17.00;72.00;;;;;;5110485;27;20026;-44
2023/04/13 08:43:00;;;;;;;;;;;16.90;72.40;;;;;;5128759;27;20012;-44
2023/04/13 08:45:27;;;;;;;2.47;1.23;;;17.00;72.70;;;;;;5109274;27;19987;-44
2023/04/13 08:47:52;;;;;;;1.50;1.17;;;16.80;72.40;;;;;;5107989;28;20638;-45
2023/04/13 08:50:19;;;;;;;3.10;1.30;;;16.80;74.00;;;;;;5106789;28;20115;-46
2023/04/13 08:52:45;;;;;;;2.95;1.65;;;16.20;74.60;;;;;;5106276;28;20027;-44
2023/04/13 08:55:11;;;;;;;4.82;1.25;;;16.40;74.30;;;;;;5109859;28;20042;-47
2023/04/13 08:57:38;;;;;;;2.97;1.23;;;16.30;74.50;;;;;;5126974;27;20011;-45
2023/04/13 09:00:14;;;;;;;4.63;1.42;;;16.40;75.00;;;;;;5113286;28;20031;-45
2023/04/13 09:02:41;;;;;;;5.18;1.60;;;16.60;72.50;;;;;;5110691;28;20064;-44
2023/04/13 09:05:14;;;;;;;4.45;1.60;;;17.30;72.00;;;;;;5112188;28;20409;-45
2023/04/13 09:07:40;;;;;;;5.43;1.65;;;18.10;73.30;;;;;;5111264;28;20120;-44
2023/04/13 09:10:06;;;;;;;2.80;1.23;;;19.10;68.00;;;;;;5110844;28;20118;-45
2023/04/13 09:12:33;;;;;;;7.13;1.60;;;19.90;67.30;;;;;;5119614;27;20055;-44
2023/04/13 09:14:59;;;;;;;3.22;1.33;;;21.90;64.90;;;;;;5122662;27;20025;-45
2023/04/13 09:17:27;;;;;;;5.35;1.38;;;22.50;63.00;;;;;;5129663;27;20027;-44
2023/04/13 09:19:54;;;;;;;4.97;1.80;;;21.60;58.00;;;;;;5113757;27;20029;-44
2023/04/13 09:22:24;;;;;;;3.03;1.38;;;20.60;62.20;;;;;;5131359;27;20031;-46
2023/04/13 09:24:50;;;;;;;;;;;20.90;60.80;;;;;;5118731;27;20028;-44
2023/04/13 09:27:20;;;;;;;3.60;1.25;;;19.70;63.70;;;;;;5110332;28;19918;-45
2023/04/13 09:29:51;;;;;;;2.17;1.00;;;20.60;62.00;;;;;;5110624;28;20068;-44
2023/04/13 09:32:24;;;;;;;2.28;1.13;;;20.70;60.20;;;;;;5119409;27;20101;-44
2023/04/13 09:34:57;;;;;;;4.25;1.35;;;19.90;63.00;;;;;;5104254;28;20023;-44
2023/04/13 09:37:22;;;;;;;2.45;1.10;;;18.90;64.70;;;;;;5092830;28;20028;-43
2023/04/13 09:39:48;;;;;;;3.22;1.13;;;17.60;67.00;;;;;;5110893;28;20477;-46
2023/04/13 09:42:16;;;;;;;3.40;0.95;;;17.30;67.90;;;;;;5110692;28;20043;-43
2023/04/13 09:44:42;;;;;;;1.30;0.98;;;16.90;69.20;;;;;;5111207;28;20107;-49
2023/04/13 09:47:08;;;;;;;2.28;1.10;;;16.30;69.10;;;;;;5110955;28;20098;-46
2023/04/13 09:49:41;;;;;;;1.85;1.10;;;15.50;71.90;;;;;;5109710;27;20429;-44
2023/04/13 09:52:23;;;;;;;2.85;1.42;;;15.00;73.40;;;;;;5114383;27;20051;-44
2023/04/13 09:54:53;;;;;;;3.90;1.20;;;15.70;75.50;;;;;;5108230;28;20027;-44
2023/04/13 09:57:30;;;;;;;2.60;1.10;;;16.30;71.40;;;;;;5106734;28;20059;-45
2023/04/13 09:59:59;;;;;;;1.75;0.85;;;16.10;72.30;;;;;;5107209;28;20790;-44
2023/04/13 10:02:25;;;;;;;2.95;1.20;;;16.10;72.00;;;;;;5110183;28;20100;-44
2023/04/13 10:04:52;;;;;;;2.10;1.15;;;16.20;73.20;;;;;;5110410;28;20064;-48
2023/04/13 10:07:18;;;;;;;5.13;1.30;;;16.30;73.40;;;;;;5110201;28;20161;-44
2023/04/13 10:09:44;;;;;;;2.78;1.15;;;15.90;72.00;;;;;;5110133;28;20087;-44
2023/04/13 10:12:12;;;;;;;1.10;0.98;;;15.10;72.70;;;;;;5091581;28;20026;-44
2023/04/13 10:14:41;;;;;;;3.85;0.80;;;14.10;75.80;;;;;;5110262;28;20015;-44
2023/04/13 10:17:25;;;;;;;3.95;1.00;;;13.80;76.60;;;;;;5109999;28;20098;-44
2023/04/13 10:19:52;;;;;;;2.60;0.93;;;14.00;77.50;;;;;;5112196;27;20425;-49
2023/04/13 10:22:21;;;;;;;2.90;1.20;;;13.90;77.10;;;;;;5113923;27;20042;-44
2023/04/13 10:24:47;;;;;;;1.35;0.75;;;13.50;80.10;;;;;;5094457;28;20031;-44
2023/04/13 10:27:15;;;;;;;3.22;1.30;;;15.00;77.30;;;;;;5109302;28;20516;-44
2023/04/13 10:29:41;;;;;;;2.70;1.00;;;16.40;71.30;;;;;;5108212;28;20019;-44
2023/04/13 10:32:07;;;;;;;5.88;1.13;;;15.90;73.50;;;;;;5091496;28;20559;-44
2023/04/13 10:34:34;;;;;;;3.08;0.95;;;17.30;72.00;;;;;;5109747;28;20023;-45
2023/04/13 10:37:05;;;;;;;2.08;1.00;;;18.10;67.00;;;;;;5116841;27;20029;-44
2023/04/13 10:39:32;;;;;;;;;;;17.90;67.00;;;;;;5111718;27;20084;-46
2023/04/13 10:42:08;;;;;;;1.98;0.75;;;19.20;67.10;;;;;;5110194;28;19998;-44
2023/04/13 10:45:00;;;;;;;3.25;0.95;;;18.90;66.00;;;;;;5091771;28;21269;-44
2023/04/13 10:47:35;;;;;;;1.35;0.73;;;19.30;65.60;;;;;;5114449;27;20040;-44
2023/04/13 10:50:01;;;;;;;2.50;0.95;;;18.70;63.70;;;;;;5112739;27;20011;-45
2023/04/13 10:52:28;;;;;;;0.57;0.55;;;17.20;66.30;;;;;;5119022;27;20072;-45
2023/04/13 10:54:54;;;;;;;4.47;0.80;;;16.70;66.90;;;;;;5108467;28;20019;-45
2023/04/13 10:57:20;;;;;;;1.83;0.95;;;17.60;67.10;;;;;;5108032;28;20374;-49
2023/04/13 10:59:56;;;;;;;1.70;1.05;;;17.90;66.80;;;;;;5109185;28;20022;-46
2023/04/13 11:02:24;;;;;;;2.80;1.00;;;17.00;66.10;;;;;;5109764;28;20028;-45
2023/04/13 11:04:50;;;;;;;2.75;0.98;;;15.80;71.40;;;;;;5109678;28;20027;-45
2023/04/13 11:07:22;;;;;;;2.72;1.17;;;16.10;70.20;;;;;;5109144;28;20042;-44
2023/04/13 11:09:51;;;;;;;1.30;0.73;;;15.90;69.90;;;;;;5090930;28;20497;-44
2023/04/13 11:12:18;;;;;;;3.80;0.82;;;15.60;71.50;;;;;;5090669;28;20029;-44
2023/04/13 11:14:47;;;;;;;1.23;0.80;;;16.10;71.10;;;;;;5109275;28;20023;-44
2023/04/13 11:17:14;;;;;;;0.47;0.47;;;16.60;69.70;;;;;;5117361;27;20050;-44
2023/04/13 11:19:50;;;;;;;0.88;0.70;;;18.40;64.50;;;;;;5102274;27;20023;-45
2023/04/13 11:22:21;;;;;;;2.25;1.02;;;19.30;62.50;;;;;;5129327;27;20426;-45
2023/04/13 11:24:47;;;;;;;1.80;0.95;;;20.60;61.10;;;;;;5116540;27;20026;-45
2023/04/13 11:27:22;;;;;;;2.72;0.80;;;20.10;58.30;;;;;;5108302;28;20031;-44
2023/04/13 11:30:05;;;;;;;1.13;0.60;;;20.60;56.70;;;;;;5108470;28;20027;-44
2023/04/13 11:32:35;;;;;;;1.80;0.57;;;19.80;57.00;;;;;;5109157;28;20049;-45
2023/04/13 11:35:07;;;;;;;0.93;0.60;;;19.50;58.80;;;;;;5115437;27;20023;-45
2023/04/13 11:37:40;;;;;;;2.50;0.80;;;20.10;59.60;;;;;;5109321;27;20110;-45
2023/04/13 11:40:16;;;;;;;2.25;1.00;;;21.30;59.10;;;;;;5115673;27;20414;-45
2023/04/13 11:42:47;;;;;;;0.98;0.65;;;21.40;57.40;;;;;;5082131;28;20484;-45
2023/04/13 11:45:17;;;;;;;2.05;0.90;;;22.10;55.90;;;;;;5090511;28;20031;-45
2023/04/13 11:47:43;;;;;;;1.30;0.75;;;21.00;54.60;;;;;;5108845;28;20106;-45
2023/04/13 11:50:09;;;;;;;1.25;0.63;;;20.80;55.00;;;;;;5114200;27;20012;-45
2023/04/13 11:52:37;;;;;;;1.95;0.70;;;19.60;54.70;;;;;;5126167;27;20055;-45
2023/04/13 11:55:03;;;;;;;1.25;0.63;;;19.40;57.80;;;;;;5109124;28;20086;-45
2023/04/13 11:57:30;;;;;;;0.90;0.60;;;19.10;57.30;;;;;;5117848;27;20185;-44
2023/04/13 11:59:56;;;;;;;0.77;0.70;;;18.50;57.90;;;;;;5128947;27;20028;-45
2023/04/13 12:02:26;;;;;;;1.33;0.75;;;17.70;59.20;;;;;;5111043;27;20511;-44
2023/04/13 12:04:52;;;;;;;0.68;0.68;;;17.50;60.80;;;;;;5108534;28;20027;-45
2023/04/13 12:07:19;;;;;;;1.15;0.77;;;17.10;60.70;;;;;;5108196;28;20035;-45
2023/04/13 12:09:46;;;;;;;2.35;0.70;;;17.80;61.00;;;;;;5109261;27;20012;-43
2023/04/13 12:12:21;;;;;;;3.55;0.80;;;17.10;61.10;;;;;;5109931;27;20019;-44
2023/04/13 12:14:54;;;;;;;4.10;1.20;;;17.30;62.10;;;;;;5115517;27;20039;-44
2023/04/13 12:17:19;;;;;;;1.15;0.88;;;18.30;63.00;;;;;;5107860;28;20500;-46
2023/04/13 12:19:49;;;;;;;1.58;0.75;;;18.00;61.20;;;;;;5108263;27;20077;-45
2023/04/13 12:22:15;;;;;;;6.50;0.80;;;17.20;63.90;;;;;;5127876;27;20057;-45
2023/04/13 12:24:40;;;;;;;1.48;1.00;;;16.60;65.50;;;;;;5119689;27;20096;-45
2023/04/13 12:27:06;;;;;;;2.15;1.00;;;15.90;66.60;;;;;;5112160;27;20023;-45
2023/04/13 12:29:37;;;;;;;2.13;0.90;;;16.10;68.60;;;;;;5107660;28;20020;-45
2023/04/13 12:32:06;;;;;;;1.98;0.80;;;16.00;66.30;;;;;;5104571;28;20011;-44
2023/04/13 12:34:31;;;;;;;1.27;0.80;;;15.70;66.20;;;;;;5107432;28;20027;-44
2023/04/13 12:36:57;;;;;;;2.28;0.70;;;15.60;70.00;;;;;;5088593;28;20020;-44
2023/04/13 12:39:23;;;;;;;2.90;0.90;;;15.50;67.50;;;;;;5111398;27;20031;-44
2023/04/13 12:41:48;;;;;;;2.72;0.90;;;15.30;69.70;;;;;;5127189;27;20049;-44
2023/04/13 12:44:14;;;;;;;2.35;0.80;;;15.40;68.80;;;;;;5092895;28;20035;-44
2023/04/13 12:46:39;;;;;;;0.93;0.82;;;15.10;68.00;;;;;;5102721;27;20094;-45
2023/04/13 12:49:05;;;;;;;1.58;1.00;;;15.20;65.30;;;;;;5093759;28;20415;-45